createdAt,value
2023-01-22T00:02:26.717Z,11.15
2023-01-22T00:05:27.826Z,11.43
2023-01-22T00:08:29.092Z,13.05
2023-01-22T00:11:30.225Z,10.07
2023-01-22T00:14:31.129Z,9.40
2023-01-22T00:17:32.308Z,11.98
2023-01-22T00:20:33.849Z,12.82
2023-01-22T00:23:35.159Z,11.05
2023-01-22T00:26:37.101Z,11.23
2023-01-22T00:29:38.432Z,12.27
2023-01-22T00:32:39.184Z,11.82
2023-01-22T00:35:40.377Z,12.00
2023-01-22T00:38:41.941Z,10.57
2023-01-22T00:41:43.888Z,10.90
2023-01-22T00:44:44.826Z,14.18
2023-01-22T00:47:45.721Z,12.80
2023-01-22T00:50:46.694Z,11.55
2023-01-22T00:53:47.858Z,14.07
2023-01-22T00:56:50.364Z,15.55
2023-01-22T00:59:52.458Z,14.95
2023-01-22T01:03:11.908Z,14.07
2023-01-22T01:06:20.472Z,12.70
2023-01-22T01:09:21.236Z,16.02
2023-01-22T01:12:22.306Z,13.20
2023-01-22T01:15:25.091Z,13.93
2023-01-22T01:18:25.852Z,14.88
2023-01-22T01:21:27.112Z,16.75
2023-01-22T01:24:28.215Z,13.65
2023-01-22T01:27:31.773Z,16.13
2023-01-22T01:30:32.938Z,15.65
2023-01-22T01:33:34.357Z,14.38
2023-01-22T01:36:48.316Z,14.45
2023-01-22T01:39:52.663Z,15.48
2023-01-22T01:42:53.942Z,16.20
2023-01-22T01:45:58.077Z,15.80
2023-01-22T01:48:59.314Z,16.15
2023-01-22T01:52:11.752Z,16.75
2023-01-22T01:55:16.806Z,19.13
2023-01-22T01:58:21.841Z,16.63
2023-01-22T02:01:23.638Z,20.73
2023-01-22T02:04:27.455Z,24.40
2023-01-22T02:07:28.534Z,22.00
2023-01-22T02:10:29.959Z,22.40
2023-01-22T02:13:35.640Z,19.73
2023-01-22T02:16:36.936Z,21.52
2023-01-22T02:19:39.516Z,21.33
2023-01-22T02:22:41.108Z,14.88
2023-01-22T02:25:41.787Z,18.98
2023-01-22T02:28:45.776Z,16.58
2023-01-22T02:31:46.962Z,20.48
2023-01-22T02:34:48.078Z,18.15
2023-01-22T02:37:49.280Z,17.10
2023-01-22T02:40:50.620Z,22.20
2023-01-22T02:43:54.072Z,16.77
2023-01-22T02:46:57.753Z,19.38
2023-01-22T02:50:00.149Z,17.85
2023-01-22T02:53:01.623Z,18.10
2023-01-22T02:56:11.200Z,18.52
2023-01-22T02:59:13.945Z,22.33
2023-01-22T03:02:15.200Z,21.40
2023-01-22T03:05:16.553Z,21.33
2023-01-22T03:08:19.472Z,23.33
2023-01-22T03:11:20.769Z,21.73
2023-01-22T03:14:42.106Z,19.60
2023-01-22T03:18:01.522Z,18.70
2023-01-22T03:21:18.971Z,21.10
2023-01-22T03:24:20.356Z,22.30
2023-01-22T03:27:25.169Z,23.60
2023-01-22T03:30:27.161Z,22.60
2023-01-22T03:33:28.543Z,25.70
2023-01-22T03:36:29.964Z,28.38
2023-01-22T03:39:34.392Z,25.50
2023-01-22T03:42:36.672Z,24.10
2023-01-22T03:45:37.537Z,32.28
2023-01-22T03:48:41.037Z,26.42
2023-01-22T03:51:43.933Z,27.27
2023-01-22T03:54:45.220Z,27.35
2023-01-22T03:57:46.372Z,30.80
2023-01-22T04:00:48.996Z,32.95
2023-01-22T04:03:51.727Z,27.63
2023-01-22T04:06:52.464Z,32.08
2023-01-22T04:09:53.740Z,33.85
2023-01-22T04:12:54.400Z,32.25
2023-01-22T04:15:57.751Z,29.60
2023-01-22T04:19:18.506Z,30.83
2023-01-22T04:22:26.895Z,33.00
2023-01-22T04:25:29.697Z,28.77
2023-01-22T04:28:30.416Z,28.08
2023-01-22T04:31:32.907Z,25.58
2023-01-22T04:34:44.416Z,22.17
2023-01-22T04:37:59.212Z,26.00
2023-01-22T04:40:59.922Z,18.20
2023-01-22T04:44:01.179Z,18.00
2023-01-22T04:47:03.661Z,20.17
2023-01-22T04:50:06.160Z,18.05
2023-01-22T04:53:08.424Z,15.20
2023-01-22T04:56:09.855Z,17.55
2023-01-22T04:59:11.116Z,16.50
2023-01-22T05:02:12.493Z,18.35
2023-01-22T05:05:14.516Z,16.90
2023-01-22T05:08:15.628Z,14.30
2023-01-22T05:11:17.897Z,15.23
2023-01-22T05:14:26.943Z,18.45
2023-01-22T05:17:28.066Z,17.80
2023-01-22T05:20:29.343Z,17.02
2023-01-22T05:23:32.211Z,17.75
2023-01-22T05:26:33.916Z,18.67
2023-01-22T05:29:47.928Z,16.35
2023-01-22T05:33:09.142Z,18.42
2023-01-22T05:36:12.914Z,17.15
2023-01-22T05:39:15.019Z,19.27
2023-01-22T05:42:16.791Z,16.92
2023-01-22T05:45:21.243Z,20.63
2023-01-22T05:48:41.296Z,18.98
2023-01-22T05:51:52.181Z,16.70
2023-01-22T05:54:52.781Z,20.70
2023-01-22T05:57:53.524Z,23.17
2023-01-22T06:00:54.795Z,20.85
2023-01-22T06:04:00.468Z,25.83
2023-01-22T06:07:01.618Z,22.75
2023-01-22T06:10:03.219Z,23.38
2023-01-22T06:13:04.252Z,20.20
2023-01-22T06:16:07.239Z,24.70
2023-01-22T06:19:28.368Z,25.13
2023-01-22T06:22:29.545Z,25.85
2023-01-22T06:25:34.232Z,23.55
2023-01-22T06:28:46.013Z,34.25
2023-01-22T06:31:47.613Z,30.83
2023-01-22T06:34:51.775Z,31.90
2023-01-22T06:37:53.128Z,30.85
2023-01-22T06:40:59.228Z,39.05
2023-01-22T06:44:00.610Z,29.13
2023-01-22T06:47:01.566Z,30.95
2023-01-22T06:50:05.385Z,28.80
2023-01-22T06:53:06.509Z,31.40
2023-01-22T06:56:08.150Z,27.88
2023-01-22T06:59:09.076Z,30.52
2023-01-22T07:02:17.786Z,30.88
2023-01-22T07:05:23.104Z,28.35
2023-01-22T07:08:24.013Z,29.45
2023-01-22T07:11:25.518Z,32.72
2023-01-22T07:14:36.533Z,30.58
2023-01-22T07:17:38.160Z,37.58
2023-01-22T07:20:38.885Z,27.63
2023-01-22T07:23:41.634Z,27.40
2023-01-22T07:26:43.769Z,31.02
2023-01-22T07:29:44.904Z,28.67
2023-01-22T07:32:45.851Z,25.63
2023-01-22T07:35:57.413Z,28.60
2023-01-22T07:38:58.562Z,27.73
2023-01-22T07:42:01.563Z,27.42
2023-01-22T07:45:05.292Z,29.05
2023-01-22T07:48:10.818Z,25.60
2023-01-22T07:51:12.880Z,28.08
2023-01-22T07:54:13.723Z,33.63
2023-01-22T07:57:15.657Z,28.30
2023-01-22T08:00:17.185Z,24.73
2023-01-22T08:03:18.288Z,28.38
2023-01-22T08:06:22.827Z,20.42
2023-01-22T08:09:25.898Z,25.48
2023-01-22T08:12:27.048Z,20.98
2023-01-22T08:15:28.192Z,21.55
2023-01-22T08:18:29.376Z,26.58
2023-01-22T08:21:30.284Z,19.58
2023-01-22T08:24:31.524Z,21.30
2023-01-22T08:27:35.407Z,20.98
2023-01-22T08:30:45.407Z,21.25
2023-01-22T08:33:46.590Z,19.90
2023-01-22T08:36:47.555Z,19.33
2023-01-22T08:39:48.359Z,21.40
2023-01-22T08:42:54.660Z,23.23
2023-01-22T08:45:55.836Z,19.88
2023-01-22T08:48:57.083Z,21.73
2023-01-22T08:51:58.187Z,21.90
2023-01-22T08:54:59.336Z,19.90
2023-01-22T08:58:00.139Z,19.75
2023-01-22T09:01:01.403Z,19.42
2023-01-22T09:04:02.037Z,17.92
2023-01-22T09:07:03.332Z,22.58
2023-01-22T09:10:08.215Z,19.98
2023-01-22T09:13:10.901Z,26.45
2023-01-22T09:16:12.041Z,18.25
2023-01-22T09:19:13.279Z,23.92
2023-01-22T09:22:14.470Z,20.90
2023-01-22T09:25:16.603Z,21.88
2023-01-22T09:28:17.528Z,20.00
2023-01-22T09:31:20.424Z,18.73
2023-01-22T09:34:21.203Z,17.67
2023-01-22T09:37:22.341Z,14.70
2023-01-22T09:40:48.698Z,16.48
2023-01-22T09:44:03.282Z,16.17
2023-01-22T09:47:14.455Z,15.77
2023-01-22T09:50:24.823Z,17.17
2023-01-22T09:53:25.498Z,15.73
2023-01-22T09:56:41.697Z,19.05
2023-01-22T09:59:53.058Z,17.10
2023-01-22T10:03:01.959Z,15.57
2023-01-22T10:06:23.838Z,17.33
2023-01-22T10:09:24.940Z,19.52
2023-01-22T10:12:30.140Z,15.60
2023-01-22T10:15:31.408Z,15.38
2023-01-22T10:19:06.561Z,22.08
2023-01-22T10:22:19.614Z,19.95
2023-01-22T10:25:20.604Z,20.40
2023-01-22T10:28:28.028Z,17.08
2023-01-22T10:34:36.705Z,17.80
2023-01-22T10:37:46.250Z,16.23
2023-01-22T10:40:55.155Z,16.33
2023-01-22T10:43:56.141Z,19.45
2023-01-22T10:47:09.611Z,17.23
2023-01-22T10:50:17.286Z,19.17
2023-01-22T10:53:32.081Z,17.00
2023-01-22T10:56:39.153Z,21.38
2023-01-22T10:59:40.240Z,15.05
2023-01-22T11:02:48.073Z,14.75
2023-01-22T11:05:58.041Z,15.23
2023-01-22T11:09:33.021Z,15.80
2023-01-22T11:12:41.188Z,13.63
2023-01-22T11:15:57.862Z,15.93
2023-01-22T11:19:36.300Z,12.93
2023-01-22T11:22:45.338Z,13.13
2023-01-22T11:26:52.853Z,13.32
2023-01-22T11:30:07.830Z,13.90
2023-01-22T11:33:41.558Z,15.15
2023-01-22T11:37:13.821Z,15.07
2023-01-22T11:40:32.496Z,14.82
2023-01-22T11:43:55.962Z,13.45
2023-01-22T11:47:34.840Z,14.85
2023-01-22T11:50:59.286Z,13.20
2023-01-22T11:54:50.513Z,13.55
2023-01-22T11:58:22.092Z,12.80
2023-01-22T12:01:47.127Z,11.75
2023-01-22T12:05:12.872Z,12.20
2023-01-22T12:08:41.209Z,10.05
2023-01-22T12:12:11.128Z,11.27
2023-01-22T12:15:44.733Z,11.27
2023-01-22T12:18:59.301Z,9.55
2023-01-22T12:22:27.144Z,11.07
2023-01-22T12:26:09.426Z,12.27
2023-01-22T12:29:37.006Z,11.85
2023-01-22T12:32:41.453Z,10.73
2023-01-22T12:35:43.601Z,8.98
2023-01-22T12:39:47.752Z,11.07
2023-01-22T12:43:06.987Z,10.43
2023-01-22T12:46:18.248Z,11.50
2023-01-22T12:49:20.929Z,12.18
2023-01-22T12:52:32.867Z,10.45
2023-01-22T12:55:44.092Z,9.63
2023-01-22T12:58:57.933Z,11.13
2023-01-22T13:02:06.535Z,10.52
2023-01-22T13:05:22.586Z,12.82
2023-01-22T13:08:43.088Z,11.00
2023-01-22T13:11:44.292Z,9.13
2023-01-22T13:14:45.739Z,9.82
2023-01-22T13:18:06.271Z,9.63
2023-01-22T13:21:15.905Z,8.43
2023-01-22T13:24:21.202Z,12.77
2023-01-22T13:27:33.952Z,9.63
2023-01-22T13:30:35.360Z,9.98
2023-01-22T13:33:36.029Z,8.60
2023-01-22T13:36:47.030Z,9.43
2023-01-22T13:39:47.997Z,9.40
2023-01-22T13:42:49.777Z,8.57
2023-01-22T13:45:55.562Z,12.02
2023-01-22T13:49:08.091Z,10.45
2023-01-22T13:52:17.762Z,10.50
2023-01-22T13:55:23.122Z,11.68
2023-01-22T13:58:48.449Z,11.88
2023-01-22T14:01:51.230Z,10.98
2023-01-22T14:04:52.173Z,10.52
2023-01-22T14:08:06.733Z,10.45
2023-01-22T14:11:07.977Z,12.90
2023-01-22T14:14:18.263Z,9.27
2023-01-22T14:17:34.237Z,10.13
2023-01-22T14:20:35.304Z,8.93
2023-01-22T14:23:36.559Z,9.45
2023-01-22T14:26:37.465Z,8.48
2023-01-22T14:29:38.453Z,10.65
2023-01-22T14:32:39.258Z,12.25
2023-01-22T14:35:40.169Z,10.52
2023-01-22T14:38:41.339Z,10.48
2023-01-22T14:41:42.473Z,9.60
2023-01-22T14:44:43.316Z,11.68
2023-01-22T14:47:45.059Z,10.55
2023-01-22T14:50:47.384Z,12.10
2023-01-22T14:53:48.578Z,11.20
2023-01-22T14:56:49.719Z,11.70
2023-01-22T14:59:50.923Z,9.90
2023-01-22T15:02:56.439Z,9.70
2023-01-22T15:05:57.414Z,9.35
2023-01-22T15:08:58.743Z,10.85
2023-01-22T15:11:59.851Z,8.50
2023-01-22T15:15:00.784Z,8.75
2023-01-22T15:18:01.696Z,7.95
2023-01-22T15:21:05.905Z,8.25
2023-01-22T15:24:07.548Z,9.32
2023-01-22T15:27:08.829Z,8.38
2023-01-22T15:30:11.413Z,9.88
2023-01-22T15:33:12.397Z,9.75
2023-01-22T15:36:13.169Z,9.20
2023-01-22T15:39:13.862Z,9.32
2023-01-22T15:42:14.752Z,12.10
2023-01-22T15:45:15.512Z,8.30
2023-01-22T15:48:16.621Z,9.88
2023-01-22T15:51:19.027Z,9.07
2023-01-22T15:54:20.144Z,10.30
2023-01-22T15:57:21.477Z,8.88
2023-01-22T16:00:22.874Z,10.63
2023-01-22T16:03:23.861Z,11.52
2023-01-22T16:06:28.076Z,9.82
2023-01-22T16:09:28.928Z,9.63
2023-01-22T16:12:31.267Z,10.90
2023-01-22T16:15:32.780Z,9.77
2023-01-22T16:18:35.480Z,11.82
2023-01-22T16:21:36.410Z,9.77
2023-01-22T16:24:37.250Z,12.10
2023-01-22T16:27:39.152Z,11.68
2023-01-22T16:30:40.205Z,10.77
2023-01-22T16:33:45.300Z,11.05
2023-01-22T16:36:46.320Z,10.27
2023-01-22T16:39:47.385Z,8.90
2023-01-22T16:42:59.802Z,10.52
2023-01-22T16:46:00.859Z,10.32
2023-01-22T16:49:16.297Z,10.93
2023-01-22T16:52:22.712Z,10.63
2023-01-22T16:55:24.199Z,10.75
2023-01-22T16:58:24.974Z,12.05
2023-01-22T17:01:29.920Z,10.45
2023-01-22T17:04:31.742Z,12.52
2023-01-22T17:07:34.358Z,11.23
2023-01-22T17:10:37.018Z,12.60
2023-01-22T17:13:37.907Z,13.15
2023-01-22T17:16:38.865Z,9.90
2023-01-22T17:19:39.897Z,10.95
2023-01-22T17:22:40.717Z,12.35
2023-01-22T17:25:42.029Z,10.55
2023-01-22T17:28:44.159Z,11.45
2023-01-22T17:31:45.655Z,9.75
2023-01-22T17:34:46.861Z,10.30
2023-01-22T17:37:47.993Z,7.20
2023-01-22T17:40:49.069Z,8.38
2023-01-22T17:43:52.579Z,6.72
2023-01-22T17:46:55.589Z,7.10
2023-01-22T17:49:56.536Z,6.35
2023-01-22T17:52:57.417Z,6.25
2023-01-22T17:56:21.717Z,6.97
2023-01-22T17:59:24.375Z,6.50
2023-01-22T18:02:25.603Z,7.05
2023-01-22T18:05:26.820Z,6.15
2023-01-22T18:08:33.133Z,7.07
2023-01-22T18:11:36.856Z,6.00
2023-01-22T18:14:39.568Z,7.75
2023-01-22T18:17:40.667Z,7.28
2023-01-22T18:20:48.102Z,8.07
2023-01-22T18:23:49.773Z,9.25
2023-01-22T18:26:50.884Z,9.63
2023-01-22T18:29:51.719Z,10.00
2023-01-22T18:32:53.047Z,10.15
2023-01-22T18:35:54.290Z,13.25
2023-01-22T18:38:59.865Z,10.73
2023-01-22T18:42:00.702Z,10.98
2023-01-22T18:45:01.518Z,15.02
2023-01-22T18:48:03.213Z,11.00
2023-01-22T18:51:06.189Z,12.95
2023-01-22T18:54:07.678Z,14.88
2023-01-22T18:57:08.717Z,13.48
2023-01-22T19:00:11.665Z,10.73
2023-01-22T19:03:13.623Z,11.70
2023-01-22T19:06:18.607Z,13.80
2023-01-22T19:09:20.714Z,14.27
2023-01-22T19:12:22.096Z,14.80
2023-01-22T19:15:24.723Z,14.70
2023-01-22T19:18:26.240Z,15.38
2023-01-22T19:21:28.515Z,13.55
2023-01-22T19:24:32.315Z,14.18
2023-01-22T19:27:33.748Z,14.70
2023-01-22T19:30:34.542Z,12.43
2023-01-22T19:33:35.727Z,11.30
2023-01-22T19:36:38.989Z,14.13
2023-01-22T19:39:41.629Z,11.23
2023-01-22T19:42:46.403Z,14.48
2023-01-22T19:45:47.489Z,11.75
2023-01-22T19:48:49.146Z,16.55
2023-01-22T19:51:50.367Z,13.73
2023-01-22T19:54:51.315Z,13.55
2023-01-22T19:57:55.611Z,12.32
2023-01-22T20:00:58.359Z,11.35
2023-01-22T20:03:59.943Z,13.05
2023-01-22T20:07:05.963Z,14.52
2023-01-22T20:10:07.385Z,14.70
2023-01-22T20:13:11.028Z,13.43
2023-01-22T20:16:23.180Z,19.73
2023-01-22T20:19:24.246Z,16.75
2023-01-22T20:22:25.481Z,18.35
2023-01-22T20:25:26.271Z,12.88
2023-01-22T20:28:27.038Z,14.88
2023-01-22T20:31:28.061Z,12.77
2023-01-22T20:34:29.976Z,14.80
2023-01-22T20:37:31.503Z,13.40
2023-01-22T20:40:32.367Z,13.18
2023-01-22T20:43:33.317Z,14.20
2023-01-22T20:46:36.132Z,12.45
2023-01-22T20:49:37.265Z,15.35
2023-01-22T20:52:38.191Z,13.18
2023-01-22T20:55:39.032Z,13.07
2023-01-22T20:58:39.910Z,12.38
2023-01-22T21:01:40.901Z,13.88
2023-01-22T21:04:42.074Z,12.85
2023-01-22T21:07:43.042Z,12.70
2023-01-22T21:10:43.643Z,10.75
2023-01-22T21:13:45.002Z,12.48
2023-01-22T21:16:46.497Z,13.15
2023-01-22T21:19:47.898Z,11.80
2023-01-22T21:22:48.805Z,11.93
2023-01-22T21:25:49.481Z,13.02
2023-01-22T21:28:56.595Z,11.52
2023-01-22T21:31:57.931Z,12.45
2023-01-22T21:34:59.038Z,11.80
2023-01-22T21:37:59.809Z,13.57
2023-01-22T21:41:10.297Z,13.80
2023-01-22T21:44:32.806Z,15.32
2023-01-22T21:47:33.780Z,15.52
2023-01-22T21:50:38.452Z,14.80
2023-01-22T21:53:39.343Z,15.05
2023-01-22T21:56:41.184Z,13.27
2023-01-22T21:59:43.126Z,13.07
2023-01-22T22:02:45.273Z,12.98
2023-01-22T22:06:02.068Z,15.68
2023-01-22T22:09:07.862Z,11.70
2023-01-22T22:12:10.306Z,13.88
2023-01-22T22:15:12.273Z,16.40
2023-01-22T22:18:13.288Z,13.77
2023-01-22T22:21:14.764Z,15.18
2023-01-22T22:24:15.863Z,16.25
2023-01-22T22:27:17.062Z,13.68
2023-01-22T22:30:18.888Z,17.27
2023-01-22T22:33:20.165Z,13.80
2023-01-22T22:36:25.148Z,15.35
2023-01-22T22:39:26.125Z,13.15
2023-01-22T22:42:27.832Z,17.90
2023-01-22T22:45:28.953Z,16.38
2023-01-22T22:48:29.893Z,17.85
2023-01-22T22:51:37.785Z,17.85
2023-01-22T22:54:38.766Z,17.65
2023-01-22T22:57:39.660Z,16.45
2023-01-22T23:00:41.686Z,15.05
2023-01-22T23:03:44.175Z,14.20
2023-01-22T23:06:46.835Z,17.52
2023-01-22T23:09:47.867Z,19.20
2023-01-22T23:12:48.556Z,19.55
2023-01-22T23:15:49.264Z,17.35
2023-01-22T23:18:51.939Z,16.98
2023-01-22T23:21:59.820Z,15.13
2023-01-22T23:25:01.149Z,18.17
2023-01-22T23:28:01.946Z,18.85
2023-01-22T23:31:13.261Z,15.65
2023-01-22T23:34:19.348Z,18.33
2023-01-22T23:37:20.864Z,19.25
2023-01-22T23:40:21.975Z,19.90
2023-01-22T23:43:23.093Z,16.90
2023-01-22T23:46:30.932Z,20.95
2023-01-22T23:49:31.893Z,20.75
2023-01-22T23:52:32.892Z,18.23
2023-01-22T23:55:33.682Z,21.42
2023-01-22T23:58:35.549Z,18.00
